sensor_id;sensor_type;location;lat;lon;timestamp;P1;durP1;ratioP1;P2;durP2;ratioP2
15776;SDS011;7989;51.198;6.676;2023-11-19T13:25:13;17.48;;;5.82;;
15776;SDS011;7989;51.198;6.676;2023-11-19T13:27:40;18.75;;;5.22;;
15776;SDS011;7989;51.198;6.676;2023-11-19T13:30:07;15.43;;;5.13;;
15776;SDS011;7989;51.198;6.676;2023-11-19T13:32:34;15.77;;;5.45;;
15776;SDS011;7989;51.198;6.676;2023-11-19T13:35:01;15.02;;;4.63;;
15776;SDS011;7989;51.198;6.676;2023-11-19T13:37:28;19.83;;;5.57;;
15776;SDS011;7989;51.198;6.676;2023-11-19T13:39:55;18.05;;;5.22;;
15776;SDS011;7989;51.198;6.676;2023-11-19T13:42:23;16.13;;;4.53;;
15776;SDS011;7989;51.198;6.676;2023-11-19T13:44:50;16.67;;;4.90;;
15776;SDS011;7989;51.198;6.676;2023-11-19T13:47:17;18.27;;;5.70;;
15776;SDS011;7989;51.198;6.676;2023-11-19T13:49:44;19.48;;;5.75;;
15776;SDS011;7989;51.198;6.676;2023-11-19T13:52:11;13.88;;;4.95;;
15776;SDS011;7989;51.198;6.676;2023-11-19T13:54:38;15.93;;;5.53;;
15776;SDS011;7989;51.198;6.676;2023-11-19T13:57:05;20.08;;;7.47;;
15776;SDS011;7989;51.198;6.676;2023-11-19T13:59:33;17.40;;;5.68;;
15776;SDS011;7989;51.198;6.676;2023-11-19T14:02:05;19.30;;;5.60;;
15776;SDS011;7989;51.198;6.676;2023-11-19T14:04:32;17.13;;;4.97;;
15776;SDS011;7989;51.198;6.676;2023-11-19T14:06:59;17.73;;;5.35;;
15776;SDS011;7989;51.198;6.676;2023-11-19T14:09:26;15.98;;;5.47;;
15776;SDS011;7989;51.198;6.676;2023-11-19T14:11:54;21.65;;;7.72;;
15776;SDS011;7989;51.198;6.676;2023-11-19T14:14:20;26.60;;;11.95;;
15776;SDS011;7989;51.198;6.676;2023-11-19T14:16:49;22.70;;;6.57;;
15776;SDS011;7989;51.198;6.676;2023-11-19T14:19:15;12.65;;;4.75;;
15776;SDS011;7989;51.198;6.676;2023-11-19T14:21:42;17.13;;;5.95;;
15776;SDS011;7989;51.198;6.676;2023-11-19T14:24:10;15.07;;;4.68;;
15776;SDS011;7989;51.198;6.676;2023-11-19T14:26:37;15.75;;;5.63;;
15776;SDS011;7989;51.198;6.676;2023-11-19T14:29:03;20.15;;;5.15;;
15776;SDS011;7989;51.198;6.676;2023-11-19T14:31:30;14.85;;;5.65;;
15776;SDS011;7989;51.198;6.676;2023-11-19T14:33:58;19.85;;;5.30;;
15776;SDS011;7989;51.198;6.676;2023-11-19T14:36:26;16.52;;;5.03;;
15776;SDS011;7989;51.198;6.676;2023-11-19T14:38:53;16.98;;;5.22;;
15776;SDS011;7989;51.198;6.676;2023-11-19T14:41:20;20.98;;;6.60;;
15776;SDS011;7989;51.198;6.676;2023-11-19T14:43:47;20.52;;;5.85;;
15776;SDS011;7989;51.198;6.676;2023-11-19T14:46:13;16.23;;;5.88;;
15776;SDS011;7989;51.198;6.676;2023-11-19T14:48:40;20.05;;;5.80;;
15776;SDS011;7989;51.198;6.676;2023-11-19T14:51:08;18.48;;;5.05;;
15776;SDS011;7989;51.198;6.676;2023-11-19T14:53:35;27.55;;;6.78;;
15776;SDS011;7989;51.198;6.676;2023-11-19T14:56:02;16.40;;;4.60;;
15776;SDS011;7989;51.198;6.676;2023-11-19T14:58:30;18.75;;;4.80;;
15776;SDS011;7989;51.198;6.676;2023-11-19T15:00:56;14.68;;;4.65;;
15776;SDS011;7989;51.198;6.676;2023-11-19T15:03:23;16.42;;;4.57;;
15776;SDS011;7989;51.198;6.676;2023-11-19T15:05:51;19.17;;;5.55;;
15776;SDS011;7989;51.198;6.676;2023-11-19T15:08:19;17.80;;;4.90;;
15776;SDS011;7989;51.198;6.676;2023-11-19T15:10:46;16.02;;;5.25;;
15776;SDS011;7989;51.198;6.676;2023-11-19T15:13:13;12.73;;;3.78;;
15776;SDS011;7989;51.198;6.676;2023-11-19T15:15:39;11.15;;;4.30;;
15776;SDS011;7989;51.198;6.676;2023-11-19T15:18:07;16.42;;;5.45;;
15776;SDS011;7989;51.198;6.676;2023-11-19T15:20:34;13.98;;;5.00;;
15776;SDS011;7989;51.198;6.676;2023-11-19T15:23:01;19.30;;;5.15;;
15776;SDS011;7989;51.198;6.676;2023-11-19T15:25:30;17.58;;;5.35;;
15776;SDS011;7989;51.198;6.676;2023-11-19T15:27:57;14.68;;;5.32;;
15776;SDS011;7989;51.198;6.676;2023-11-19T15:30:24;19.48;;;5.55;;
15776;SDS011;7989;51.198;6.676;2023-11-19T15:32:51;17.70;;;5.43;;
15776;SDS011;7989;51.198;6.676;2023-11-19T15:35:18;17.50;;;5.55;;
15776;SDS011;7989;51.198;6.676;2023-11-19T15:37:45;22.05;;;5.28;;
15776;SDS011;7989;51.198;6.676;2023-11-19T15:40:12;16.27;;;4.97;;
15776;SDS011;7989;51.198;6.676;2023-11-19T15:42:40;13.93;;;4.57;;
15776;SDS011;7989;51.198;6.676;2023-11-19T15:45:08;10.93;;;3.97;;
15776;SDS011;7989;51.198;6.676;2023-11-19T15:47:36;13.48;;;4.35;;
15776;SDS011;7989;51.198;6.676;2023-11-19T15:50:04;16.38;;;5.03;;
15776;SDS011;7989;51.198;6.676;2023-11-19T15:52:32;27.17;;;11.77;;
15776;SDS011;7989;51.198;6.676;2023-11-19T15:54:59;17.10;;;5.43;;
15776;SDS011;7989;51.198;6.676;2023-11-19T15:57:26;16.95;;;5.35;;
15776;SDS011;7989;51.198;6.676;2023-11-19T15:59:54;16.90;;;5.25;;
15776;SDS011;7989;51.198;6.676;2023-11-19T16:02:21;16.88;;;4.80;;
15776;SDS011;7989;51.198;6.676;2023-11-19T16:04:47;17.95;;;6.07;;
15776;SDS011;7989;51.198;6.676;2023-11-19T16:07:15;16.27;;;6.10;;
15776;SDS011;7989;51.198;6.676;2023-11-19T16:09:42;18.17;;;5.22;;
15776;SDS011;7989;51.198;6.676;2023-11-19T16:12:09;19.05;;;5.72;;
15776;SDS011;7989;51.198;6.676;2023-11-19T16:14:36;18.45;;;5.00;;
15776;SDS011;7989;51.198;6.676;2023-11-19T16:17:05;19.35;;;6.03;;
15776;SDS011;7989;51.198;6.676;2023-11-19T16:19:32;16.40;;;5.05;;
15776;SDS011;7989;51.198;6.676;2023-11-19T16:21:59;16.45;;;5.20;;
15776;SDS011;7989;51.198;6.676;2023-11-19T16:24:37;20.80;;;5.60;;
15776;SDS011;7989;51.198;6.676;2023-11-19T16:27:04;19.55;;;5.32;;
15776;SDS011;7989;51.198;6.676;2023-11-19T16:29:31;23.88;;;5.88;;
15776;SDS011;7989;51.198;6.676;2023-11-19T16:31:58;19.25;;;4.97;;
15776;SDS011;7989;51.198;6.676;2023-11-19T16:34:27;16.60;;;5.45;;
15776;SDS011;7989;51.198;6.676;2023-11-19T16:36:55;13.63;;;4.85;;
15776;SDS011;7989;51.198;6.676;2023-11-19T16:39:22;16.35;;;5.10;;
15776;SDS011;7989;51.198;6.676;2023-11-19T16:41:49;13.27;;;4.80;;
15776;SDS011;7989;51.198;6.676;2023-11-19T16:44:18;22.00;;;6.15;;
15776;SDS011;7989;51.198;6.676;2023-11-19T16:46:45;20.50;;;5.85;;
15776;SDS011;7989;51.198;6.676;2023-11-19T16:49:14;16.67;;;5.13;;
15776;SDS011;7989;51.198;6.676;2023-11-19T16:51:45;22.95;;;6.00;;
15776;SDS011;7989;51.198;6.676;2023-11-19T16:54:16;15.98;;;5.25;;
15776;SDS011;7989;51.198;6.676;2023-11-19T16:56:43;26.10;;;6.78;;
15776;SDS011;7989;51.198;6.676;2023-11-19T16:59:11;22.40;;;5.97;;
15776;SDS011;7989;51.198;6.676;2023-11-19T17:01:39;15.98;;;5.15;;
15776;SDS011;7989;51.198;6.676;2023-11-19T17:04:12;18.17;;;6.28;;
15776;SDS011;7989;51.198;6.676;2023-11-19T17:06:42;21.23;;;6.05;;
15776;SDS011;7989;51.198;6.676;2023-11-19T17:09:10;17.13;;;4.97;;
15776;SDS011;7989;51.198;6.676;2023-11-19T17:11:38;20.60;;;6.78;;
15776;SDS011;7989;51.198;6.676;2023-11-19T17:14:07;16.05;;;4.60;;
15776;SDS011;7989;51.198;6.676;2023-11-19T17:16:34;15.27;;;4.82;;
15776;SDS011;7989;51.198;6.676;2023-11-19T17:19:05;17.65;;;5.97;;
15776;SDS011;7989;51.198;6.676;2023-11-19T17:21:32;17.60;;;5.15;;
15776;SDS011;7989;51.198;6.676;2023-11-19T17:23:59;17.92;;;4.95;;
15776;SDS011;7989;51.198;6.676;2023-11-19T17:26:29;19.92;;;6.10;;
15776;SDS011;7989;51.198;6.676;2023-11-19T17:28:56;25.65;;;5.82;;
15776;SDS011;7989;51.198;6.676;2023-11-19T17:31:23;16.23;;;5.38;;
15776;SDS011;7989;51.198;6.676;2023-11-19T17:33:49;15.93;;;5.22;;
15776;SDS011;7989;51.198;6.676;2023-11-19T17:36:16;18.40;;;5.90;;
15776;SDS011;7989;51.198;6.676;2023-11-19T17:38:43;15.25;;;4.53;;
15776;SDS011;7989;51.198;6.676;2023-11-19T17:41:11;20.83;;;6.03;;
15776;SDS011;7989;51.198;6.676;2023-11-19T17:43:39;24.25;;;6.03;;
15776;SDS011;7989;51.198;6.676;2023-11-19T17:46:06;17.33;;;5.70;;
15776;SDS011;7989;51.198;6.676;2023-11-19T17:48:33;17.52;;;4.95;;
15776;SDS011;7989;51.198;6.676;2023-11-19T17:51:00;19.40;;;5.20;;
15776;SDS011;7989;51.198;6.676;2023-11-19T17:53:29;14.18;;;5.60;;
15776;SDS011;7989;51.198;6.676;2023-11-19T17:55:57;19.17;;;5.93;;
15776;SDS011;7989;51.198;6.676;2023-11-19T17:58:24;22.30;;;6.03;;
15776;SDS011;7989;51.198;6.676;2023-11-19T18:00:52;11.75;;;4.10;;
15776;SDS011;7989;51.198;6.676;2023-11-19T18:03:19;14.60;;;5.85;;
15776;SDS011;7989;51.198;6.676;2023-11-19T18:05:49;21.92;;;5.57;;
15776;SDS011;7989;51.198;6.676;2023-11-19T18:08:16;17.77;;;5.57;;
15776;SDS011;7989;51.198;6.676;2023-11-19T18:10:46;15.15;;;5.25;;
15776;SDS011;7989;51.198;6.676;2023-11-19T18:13:13;15.35;;;4.50;;
15776;SDS011;7989;51.198;6.676;2023-11-19T18:15:41;16.88;;;5.40;;
15776;SDS011;7989;51.198;6.676;2023-11-19T18:18:09;17.05;;;5.72;;
15776;SDS011;7989;51.198;6.676;2023-11-19T18:20:37;13.93;;;5.38;;
15776;SDS011;7989;51.198;6.676;2023-11-19T18:23:04;18.77;;;4.57;;
15776;SDS011;7989;51.198;6.676;2023-11-19T18:25:31;16.10;;;4.72;;
15776;SDS011;7989;51.198;6.676;2023-11-19T18:27:58;16.45;;;5.32;;
15776;SDS011;7989;51.198;6.676;2023-11-19T18:30:26;16.10;;;4.50;;
15776;SDS011;7989;51.198;6.676;2023-11-19T18:32:52;15.88;;;5.22;;
15776;SDS011;7989;51.198;6.676;2023-11-19T18:35:21;17.90;;;9.23;;
15776;SDS011;7989;51.198;6.676;2023-11-19T18:37:49;32.33;;;18.42;;
15776;SDS011;7989;51.198;6.676;2023-11-19T18:40:17;20.80;;;12.90;;
15776;SDS011;7989;51.198;6.676;2023-11-19T18:42:46;14.48;;;4.90;;
15776;SDS011;7989;51.198;6.676;2023-11-19T18:45:14;18.92;;;9.10;;
15776;SDS011;7989;51.198;6.676;2023-11-19T18:47:42;19.83;;;9.60;;
15776;SDS011;7989;51.198;6.676;2023-11-19T18:50:09;14.02;;;4.45;;
15776;SDS011;7989;51.198;6.676;2023-11-19T18:52:38;17.35;;;9.38;;
15776;SDS011;7989;51.198;6.676;2023-11-19T18:55:06;21.40;;;9.18;;
15776;SDS011;7989;51.198;6.676;2023-11-19T18:57:34;20.98;;;5.25;;
15776;SDS011;7989;51.198;6.676;2023-11-19T19:00:01;16.15;;;4.18;;
15776;SDS011;7989;51.198;6.676;2023-11-19T19:02:31;18.50;;;4.38;;
15776;SDS011;7989;51.198;6.676;2023-11-19T19:04:58;16.73;;;4.93;;
15776;SDS011;7989;51.198;6.676;2023-11-19T19:07:25;21.30;;;5.68;;
15776;SDS011;7989;51.198;6.676;2023-11-19T19:09:54;12.77;;;4.55;;
15776;SDS011;7989;51.198;6.676;2023-11-19T19:12:21;16.42;;;5.30;;
15776;SDS011;7989;51.198;6.676;2023-11-19T19:14:48;17.10;;;5.90;;
15776;SDS011;7989;51.198;6.676;2023-11-19T19:17:16;16.58;;;4.80;;
15776;SDS011;7989;51.198;6.676;2023-11-19T19:19:44;14.23;;;4.40;;
15776;SDS011;7989;51.198;6.676;2023-11-19T19:22:11;16.85;;;4.95;;
15776;SDS011;7989;51.198;6.676;2023-11-19T19:24:37;16.27;;;4.75;;
15776;SDS011;7989;51.198;6.676;2023-11-19T19:27:06;18.27;;;4.82;;
15776;SDS011;7989;51.198;6.676;2023-11-19T19:29:36;14.25;;;4.35;;
15776;SDS011;7989;51.198;6.676;2023-11-19T19:32:03;16.38;;;4.93;;
15776;SDS011;7989;51.198;6.676;2023-11-19T19:34:31;17.00;;;5.80;;
15776;SDS011;7989;51.198;6.676;2023-11-19T19:36:58;17.38;;;4.53;;
15776;SDS011;7989;51.198;6.676;2023-11-19T19:39:24;20.40;;;4.63;;
15776;SDS011;7989;51.198;6.676;2023-11-19T19:41:53;17.80;;;4.63;;
15776;SDS011;7989;51.198;6.676;2023-11-19T19:44:21;13.70;;;4.30;;
15776;SDS011;7989;51.198;6.676;2023-11-19T19:46:48;15.13;;;4.15;;
15776;SDS011;7989;51.198;6.676;2023-11-19T19:49:16;12.68;;;3.85;;
15776;SDS011;7989;51.198;6.676;2023-11-19T19:51:43;14.57;;;4.03;;
15776;SDS011;7989;51.198;6.676;2023-11-19T19:54:13;16.13;;;4.13;;
15776;SDS011;7989;51.198;6.676;2023-11-19T19:56:40;11.52;;;3.47;;
15776;SDS011;7989;51.198;6.676;2023-11-19T19:59:07;14.20;;;3.53;;
15776;SDS011;7989;51.198;6.676;2023-11-19T20:01:36;15.10;;;3.92;;
15776;SDS011;7989;51.198;6.676;2023-11-19T20:04:03;16.55;;;4.30;;
15776;SDS011;7989;51.198;6.676;2023-11-19T20:06:35;12.85;;;4.00;;
15776;SDS011;7989;51.198;6.676;2023-11-19T20:09:03;13.50;;;4.03;;
15776;SDS011;7989;51.198;6.676;2023-11-19T20:11:32;11.48;;;3.35;;
15776;SDS011;7989;51.198;6.676;2023-11-19T20:13:59;16.08;;;4.57;;
15776;SDS011;7989;51.198;6.676;2023-11-19T20:16:25;15.55;;;3.83;;
15776;SDS011;7989;51.198;6.676;2023-11-19T20:18:54;14.57;;;4.38;;
15776;SDS011;7989;51.198;6.676;2023-11-19T20:21:21;9.23;;;3.08;;
15776;SDS011;7989;51.198;6.676;2023-11-19T20:23:49;12.95;;;3.80;;
15776;SDS011;7989;51.198;6.676;2023-11-19T20:26:17;10.57;;;3.40;;
15776;SDS011;7989;51.198;6.676;2023-11-19T20:28:44;13.00;;;3.58;;
15776;SDS011;7989;51.198;6.676;2023-11-19T20:31:10;15.00;;;3.92;;
15776;SDS011;7989;51.198;6.676;2023-11-19T20:33:37;14.13;;;4.13;;
15776;SDS011;7989;51.198;6.676;2023-11-19T20:36:06;12.98;;;4.15;;
15776;SDS011;7989;51.198;6.676;2023-11-19T20:38:33;11.82;;;3.58;;
15776;SDS011;7989;51.198;6.676;2023-11-19T20:41:01;11.68;;;3.40;;
15776;SDS011;7989;51.198;6.676;2023-11-19T20:43:28;12.82;;;3.60;;
15776;SDS011;7989;51.198;6.676;2023-11-19T20:45:55;10.35;;;3.63;;
15776;SDS011;7989;51.198;6.676;2023-11-19T20:48:24;16.60;;;4.88;;
15776;SDS011;7989;51.198;6.676;2023-11-19T20:50:51;12.82;;;3.53;;
15776;SDS011;7989;51.198;6.676;2023-11-19T20:53:19;11.48;;;3.20;;
15776;SDS011;7989;51.198;6.676;2023-11-19T20:55:46;10.00;;;3.28;;
15776;SDS011;7989;51.198;6.676;2023-11-19T20:58:13;12.77;;;3.42;;
15776;SDS011;7989;51.198;6.676;2023-11-19T21:00:41;12.35;;;3.75;;
15776;SDS011;7989;51.198;6.676;2023-11-19T21:03:08;9.95;;;3.67;;
15776;SDS011;7989;51.198;6.676;2023-11-19T21:05:38;10.60;;;3.28;;
15776;SDS011;7989;51.198;6.676;2023-11-19T21:08:06;13.70;;;3.47;;
15776;SDS011;7989;51.198;6.676;2023-11-19T21:10:34;9.48;;;2.88;;
15776;SDS011;7989;51.198;6.676;2023-11-19T21:13:01;9.25;;;3.00;;
15776;SDS011;7989;51.198;6.676;2023-11-19T21:15:28;13.93;;;3.75;;
15776;SDS011;7989;51.198;6.676;2023-11-19T21:17:55;10.52;;;3.20;;
15776;SDS011;7989;51.198;6.676;2023-11-19T21:20:22;11.02;;;3.13;;
15776;SDS011;7989;51.198;6.676;2023-11-19T21:22:50;12.45;;;3.38;;
15776;SDS011;7989;51.198;6.676;2023-11-19T21:25:17;16.98;;;10.13;;
15776;SDS011;7989;51.198;6.676;2023-11-19T21:27:45;12.50;;;2.83;;
15776;SDS011;7989;51.198;6.676;2023-11-19T21:30:14;10.95;;;5.22;;
15776;SDS011;7989;51.198;6.676;2023-11-19T21:32:43;10.88;;;3.13;;
15776;SDS011;7989;51.198;6.676;2023-11-19T21:35:10;10.45;;;3.03;;
15776;SDS011;7989;51.198;6.676;2023-11-19T21:37:37;10.82;;;3.10;;
15776;SDS011;7989;51.198;6.676;2023-11-19T21:40:04;13.63;;;3.67;;
15776;SDS011;7989;51.198;6.676;2023-11-19T21:42:32;10.27;;;3.60;;
15776;SDS011;7989;51.198;6.676;2023-11-19T21:45:00;10.68;;;3.20;;
15776;SDS011;7989;51.198;6.676;2023-11-19T21:47:28;10.48;;;3.00;;
15776;SDS011;7989;51.198;6.676;2023-11-19T21:49:55;7.03;;;2.80;;
15776;SDS011;7989;51.198;6.676;2023-11-19T21:52:22;8.55;;;3.10;;
15776;SDS011;7989;51.198;6.676;2023-11-19T21:54:50;9.45;;;3.13;;
15776;SDS011;7989;51.198;6.676;2023-11-19T21:57:17;17.27;;;5.35;;
15776;SDS011;7989;51.198;6.676;2023-11-19T21:59:47;10.95;;;3.25;;
15776;SDS011;7989;51.198;6.676;2023-11-19T22:02:16;8.90;;;2.72;;
15776;SDS011;7989;51.198;6.676;2023-11-19T22:04:43;9.65;;;3.75;;
15776;SDS011;7989;51.198;6.676;2023-11-19T22:07:10;12.95;;;4.38;;
15776;SDS011;7989;51.198;6.676;2023-11-19T22:09:37;11.25;;;3.10;;
15776;SDS011;7989;51.198;6.676;2023-11-19T22:12:04;10.85;;;3.45;;
15776;SDS011;7989;51.198;6.676;2023-11-19T22:14:31;10.32;;;3.20;;
15776;SDS011;7989;51.198;6.676;2023-11-19T22:17:00;13.77;;;3.28;;
15776;SDS011;7989;51.198;6.676;2023-11-19T22:19:29;7.93;;;2.83;;
15776;SDS011;7989;51.198;6.676;2023-11-19T22:21:56;9.77;;;2.78;;
15776;SDS011;7989;51.198;6.676;2023-11-19T22:24:23;12.32;;;3.55;;
15776;SDS011;7989;51.198;6.676;2023-11-19T22:26:50;10.63;;;3.40;;
15776;SDS011;7989;51.198;6.676;2023-11-19T22:29:17;13.95;;;4.43;;
15776;SDS011;7989;51.198;6.676;2023-11-19T22:31:45;7.68;;;3.05;;
15776;SDS011;7989;51.198;6.676;2023-11-19T22:34:12;8.43;;;2.85;;
15776;SDS011;7989;51.198;6.676;2023-11-19T22:36:40;9.25;;;3.20;;
15776;SDS011;7989;51.198;6.676;2023-11-19T22:39:07;8.57;;;2.47;;
15776;SDS011;7989;51.198;6.676;2023-11-19T22:41:34;10.05;;;2.47;;
15776;SDS011;7989;51.198;6.676;2023-11-19T22:44:01;10.73;;;3.33;;
15776;SDS011;7989;51.198;6.676;2023-11-19T22:46:29;8.23;;;2.80;;
15776;SDS011;7989;51.198;6.676;2023-11-19T22:48:55;6.32;;;2.22;;
15776;SDS011;7989;51.198;6.676;2023-11-19T22:51:22;7.10;;;2.63;;
15776;SDS011;7989;51.198;6.676;2023-11-19T22:53:50;7.53;;;1.77;;
15776;SDS011;7989;51.198;6.676;2023-11-19T22:56:18;7.72;;;2.35;;
15776;SDS011;7989;51.198;6.676;2023-11-19T22:58:45;8.38;;;2.65;;
15776;SDS011;7989;51.198;6.676;2023-11-19T23:01:14;8.10;;;2.80;;
15776;SDS011;7989;51.198;6.676;2023-11-19T23:03:41;5.97;;;2.15;;
15776;SDS011;7989;51.198;6.676;2023-11-19T23:06:09;8.07;;;2.65;;
15776;SDS011;7989;51.198;6.676;2023-11-19T23:08:36;8.35;;;2.33;;
15776;SDS011;7989;51.198;6.676;2023-11-19T23:11:05;9.30;;;2.92;;
15776;SDS011;7989;51.198;6.676;2023-11-19T23:13:32;6.22;;;2.55;;
15776;SDS011;7989;51.198;6.676;2023-11-19T23:15:59;4.82;;;1.98;;
15776;SDS011;7989;51.198;6.676;2023-11-19T23:18:27;6.25;;;2.20;;
15776;SDS011;7989;51.198;6.676;2023-11-19T23:20:54;5.78;;;1.80;;
15776;SDS011;7989;51.198;6.676;2023-11-19T23:23:20;6.55;;;2.20;;
15776;SDS011;7989;51.198;6.676;2023-11-19T23:25:48;7.70;;;2.55;;
15776;SDS011;7989;51.198;6.676;2023-11-19T23:28:17;9.30;;;2.60;;
15776;SDS011;7989;51.198;6.676;2023-11-19T23:30:44;8.05;;;2.47;;
15776;SDS011;7989;51.198;6.676;2023-11-19T23:33:11;8.43;;;2.40;;
15776;SDS011;7989;51.198;6.676;2023-11-19T23:35:37;7.10;;;2.60;;
15776;SDS011;7989;51.198;6.676;2023-11-19T23:38:04;8.25;;;2.60;;
15776;SDS011;7989;51.198;6.676;2023-11-19T23:40:31;7.20;;;2.35;;
15776;SDS011;7989;51.198;6.676;2023-11-19T23:42:58;10.30;;;3.13;;
15776;SDS011;7989;51.198;6.676;2023-11-19T23:45:26;7.43;;;2.35;;
15776;SDS011;7989;51.198;6.676;2023-11-19T23:47:53;7.93;;;2.20;;
15776;SDS011;7989;51.198;6.676;2023-11-19T23:50:20;7.35;;;2.65;;
15776;SDS011;7989;51.198;6.676;2023-11-19T23:52:48;8.85;;;3.10;;
15776;SDS011;7989;51.198;6.676;2023-11-19T23:55:15;10.50;;;3.15;;
15776;SDS011;7989;51.198;6.676;2023-11-19T23:57:42;12.70;;;3.00;;
